sensor_id;sensor_type;location;lat;lon;timestamp;temperature;humidity
7666;DHT22;3875;46.562;4.898;2022-12-05T00:03:40;3.90;97.40
7666;DHT22;3875;46.562;4.898;2022-12-05T00:06:06;3.90;97.50
7666;DHT22;3875;46.562;4.898;2022-12-05T00:08:32;3.90;97.60
7666;DHT22;3875;46.562;4.898;2022-12-05T00:10:57;3.90;97.60
7666;DHT22;3875;46.562;4.898;2022-12-05T00:13:23;3.90;97.70
7666;DHT22;3875;46.562;4.898;2022-12-05T00:15:49;4.00;97.70
7666;DHT22;3875;46.562;4.898;2022-12-05T00:18:14;4.00;97.60
7666;DHT22;3875;46.562;4.898;2022-12-05T00:20:44;4.10;97.80
7666;DHT22;3875;46.562;4.898;2022-12-05T00:23:10;4.10;97.60
7666;DHT22;3875;46.562;4.898;2022-12-05T00:25:36;4.10;97.50
7666;DHT22;3875;46.562;4.898;2022-12-05T00:28:02;4.10;97.40
7666;DHT22;3875;46.562;4.898;2022-12-05T00:30:27;4.00;97.60
7666;DHT22;3875;46.562;4.898;2022-12-05T00:32:53;4.00;97.80
7666;DHT22;3875;46.562;4.898;2022-12-05T00:35:19;4.00;98.10
7666;DHT22;3875;46.562;4.898;2022-12-05T00:37:44;4.00;98.30
7666;DHT22;3875;46.562;4.898;2022-12-05T00:40:11;4.10;98.30
7666;DHT22;3875;46.562;4.898;2022-12-05T00:42:37;4.10;98.20
7666;DHT22;3875;46.562;4.898;2022-12-05T00:45:03;4.10;98.10
7666;DHT22;3875;46.562;4.898;2022-12-05T00:47:29;4.20;97.90
7666;DHT22;3875;46.562;4.898;2022-12-05T00:49:54;4.20;97.90
7666;DHT22;3875;46.562;4.898;2022-12-05T00:52:20;4.10;97.80
7666;DHT22;3875;46.562;4.898;2022-12-05T00:54:46;4.20;97.80
7666;DHT22;3875;46.562;4.898;2022-12-05T00:57:11;4.10;97.80
7666;DHT22;3875;46.562;4.898;2022-12-05T00:59:37;4.20;97.80
7666;DHT22;3875;46.562;4.898;2022-12-05T01:02:04;4.10;97.80
7666;DHT22;3875;46.562;4.898;2022-12-05T01:04:30;4.10;97.60
7666;DHT22;3875;46.562;4.898;2022-12-05T01:06:56;4.10;97.80
7666;DHT22;3875;46.562;4.898;2022-12-05T01:09:23;4.10;97.80
7666;DHT22;3875;46.562;4.898;2022-12-05T01:11:50;4.10;97.60
7666;DHT22;3875;46.562;4.898;2022-12-05T01:14:18;4.00;97.60
7666;DHT22;3875;46.562;4.898;2022-12-05T01:16:46;3.90;97.70
7666;DHT22;3875;46.562;4.898;2022-12-05T01:19:27;3.90;97.90
7666;DHT22;3875;46.562;4.898;2022-12-05T01:21:53;3.90;97.90
7666;DHT22;3875;46.562;4.898;2022-12-05T01:24:23;3.90;97.90
7666;DHT22;3875;46.562;4.898;2022-12-05T01:26:49;3.90;98.10
7666;DHT22;3875;46.562;4.898;2022-12-05T01:29:18;3.90;98.20
7666;DHT22;3875;46.562;4.898;2022-12-05T01:31:44;4.00;98.20
7666;DHT22;3875;46.562;4.898;2022-12-05T01:34:13;4.00;98.00
7666;DHT22;3875;46.562;4.898;2022-12-05T01:36:39;3.80;97.90
7666;DHT22;3875;46.562;4.898;2022-12-05T01:39:06;3.80;98.00
7666;DHT22;3875;46.562;4.898;2022-12-05T01:41:35;3.70;98.30
7666;DHT22;3875;46.562;4.898;2022-12-05T01:46:54;3.80;98.60
7666;DHT22;3875;46.562;4.898;2022-12-05T01:49:30;3.80;98.50
7666;DHT22;3875;46.562;4.898;2022-12-05T01:52:03;3.90;98.60
7666;DHT22;3875;46.562;4.898;2022-12-05T01:54:30;3.90;98.60
7666;DHT22;3875;46.562;4.898;2022-12-05T01:57:00;4.00;98.60
7666;DHT22;3875;46.562;4.898;2022-12-05T01:59:28;4.10;98.50
7666;DHT22;3875;46.562;4.898;2022-12-05T02:01:54;4.10;98.30
7666;DHT22;3875;46.562;4.898;2022-12-05T02:04:20;4.20;98.20
7666;DHT22;3875;46.562;4.898;2022-12-05T02:06:46;4.20;98.00
7666;DHT22;3875;46.562;4.898;2022-12-05T02:09:12;4.10;97.90
7666;DHT22;3875;46.562;4.898;2022-12-05T02:11:49;4.00;97.90
7666;DHT22;3875;46.562;4.898;2022-12-05T02:34:04;4.10;98.00
7666;DHT22;3875;46.562;4.898;2022-12-05T02:36:44;4.10;98.00
7666;DHT22;3875;46.562;4.898;2022-12-05T02:41:50;4.20;98.00
7666;DHT22;3875;46.562;4.898;2022-12-05T02:44:34;4.20;97.90
7666;DHT22;3875;46.562;4.898;2022-12-05T02:47:01;4.20;97.90
7666;DHT22;3875;46.562;4.898;2022-12-05T02:49:34;4.20;97.90
7666;DHT22;3875;46.562;4.898;2022-12-05T02:52:03;4.20;97.80
7666;DHT22;3875;46.562;4.898;2022-12-05T02:54:34;4.20;97.80
7666;DHT22;3875;46.562;4.898;2022-12-05T02:57:01;4.20;97.90
7666;DHT22;3875;46.562;4.898;2022-12-05T02:59:27;4.10;97.80
7666;DHT22;3875;46.562;4.898;2022-12-05T03:01:54;4.10;98.10
7666;DHT22;3875;46.562;4.898;2022-12-05T03:04:23;4.00;98.20
7666;DHT22;3875;46.562;4.898;2022-12-05T03:06:53;4.00;98.50
7666;DHT22;3875;46.562;4.898;2022-12-05T03:09:27;4.10;98.50
7666;DHT22;3875;46.562;4.898;2022-12-05T03:12:06;4.10;98.60
7666;DHT22;3875;46.562;4.898;2022-12-05T03:14:39;4.20;98.50
7666;DHT22;3875;46.562;4.898;2022-12-05T03:17:09;4.20;98.20
7666;DHT22;3875;46.562;4.898;2022-12-05T03:22:38;4.10;98.50
7666;DHT22;3875;46.562;4.898;2022-12-05T03:25:05;4.10;98.40
7666;DHT22;3875;46.562;4.898;2022-12-05T03:27:47;4.00;98.40
7666;DHT22;3875;46.562;4.898;2022-12-05T03:30:20;4.00;98.60
7666;DHT22;3875;46.562;4.898;2022-12-05T03:33:09;4.10;98.60
7666;DHT22;3875;46.562;4.898;2022-12-05T03:38:39;4.10;98.60
7666;DHT22;3875;46.562;4.898;2022-12-05T03:44:06;4.20;98.50
7666;DHT22;3875;46.562;4.898;2022-12-05T03:46:42;4.20;98.50
7666;DHT22;3875;46.562;4.898;2022-12-05T03:49:30;4.20;98.50
7666;DHT22;3875;46.562;4.898;2022-12-05T03:52:19;4.30;98.50
7666;DHT22;3875;46.562;4.898;2022-12-05T03:54:52;4.30;98.50
7666;DHT22;3875;46.562;4.898;2022-12-05T03:57:36;4.30;98.30
7666;DHT22;3875;46.562;4.898;2022-12-05T04:00:09;4.40;98.30
7666;DHT22;3875;46.562;4.898;2022-12-05T04:05:53;4.40;98.20
7666;DHT22;3875;46.562;4.898;2022-12-05T04:08:28;4.40;98.20
7666;DHT22;3875;46.562;4.898;2022-12-05T04:11:02;4.40;98.20
7666;DHT22;3875;46.562;4.898;2022-12-05T04:15:58;4.50;98.00
7666;DHT22;3875;46.562;4.898;2022-12-05T04:18:50;4.50;97.90
7666;DHT22;3875;46.562;4.898;2022-12-05T04:21:18;4.50;97.90
7666;DHT22;3875;46.562;4.898;2022-12-05T04:24:15;4.40;97.80
7666;DHT22;3875;46.562;4.898;2022-12-05T04:27:25;4.40;97.90
7666;DHT22;3875;46.562;4.898;2022-12-05T04:35:24;4.40;98.00
7666;DHT22;3875;46.562;4.898;2022-12-05T04:37:57;4.40;98.00
7666;DHT22;3875;46.562;4.898;2022-12-05T04:40:36;4.40;97.80
7666;DHT22;3875;46.562;4.898;2022-12-05T04:43:04;4.40;97.80
7666;DHT22;3875;46.562;4.898;2022-12-05T04:45:32;4.30;97.80
7666;DHT22;3875;46.562;4.898;2022-12-05T04:48:01;4.30;97.70
7666;DHT22;3875;46.562;4.898;2022-12-05T04:50:31;4.20;97.70
7666;DHT22;3875;46.562;4.898;2022-12-05T04:52:59;4.20;98.00
7666;DHT22;3875;46.562;4.898;2022-12-05T04:55:26;4.20;98.20
7666;DHT22;3875;46.562;4.898;2022-12-05T04:58:08;4.20;98.30
7666;DHT22;3875;46.562;4.898;2022-12-05T05:00:46;4.20;98.40
7666;DHT22;3875;46.562;4.898;2022-12-05T05:03:29;4.20;98.50
7666;DHT22;3875;46.562;4.898;2022-12-05T05:05:56;4.20;98.30
7666;DHT22;3875;46.562;4.898;2022-12-05T05:08:24;4.20;98.30
7666;DHT22;3875;46.562;4.898;2022-12-05T05:11:10;4.20;98.30
7666;DHT22;3875;46.562;4.898;2022-12-05T05:13:37;4.20;98.60
7666;DHT22;3875;46.562;4.898;2022-12-05T05:16:03;4.10;98.60
7666;DHT22;3875;46.562;4.898;2022-12-05T05:18:29;4.10;98.60
7666;DHT22;3875;46.562;4.898;2022-12-05T05:20:55;4.10;98.60
7666;DHT22;3875;46.562;4.898;2022-12-05T05:23:21;4.10;98.60
7666;DHT22;3875;46.562;4.898;2022-12-05T05:25:52;4.20;98.60
7666;DHT22;3875;46.562;4.898;2022-12-05T05:28:18;4.20;98.50
7666;DHT22;3875;46.562;4.898;2022-12-05T05:30:43;4.20;98.50
7666;DHT22;3875;46.562;4.898;2022-12-05T05:33:09;4.20;98.50
7666;DHT22;3875;46.562;4.898;2022-12-05T05:35:35;4.20;98.40
7666;DHT22;3875;46.562;4.898;2022-12-05T05:38:02;4.10;98.50
7666;DHT22;3875;46.562;4.898;2022-12-05T05:40:28;4.10;98.40
7666;DHT22;3875;46.562;4.898;2022-12-05T05:42:53;4.10;98.60
7666;DHT22;3875;46.562;4.898;2022-12-05T05:45:19;4.20;98.60
7666;DHT22;3875;46.562;4.898;2022-12-05T05:47:47;4.20;98.60
7666;DHT22;3875;46.562;4.898;2022-12-05T05:50:15;4.20;98.50
7666;DHT22;3875;46.562;4.898;2022-12-05T05:52:41;4.20;98.50
7666;DHT22;3875;46.562;4.898;2022-12-05T05:55:07;4.20;98.40
7666;DHT22;3875;46.562;4.898;2022-12-05T05:57:34;4.20;98.30
7666;DHT22;3875;46.562;4.898;2022-12-05T06:00:00;4.20;98.40
7666;DHT22;3875;46.562;4.898;2022-12-05T06:02:31;4.20;98.40
7666;DHT22;3875;46.562;4.898;2022-12-05T06:04:56;4.20;98.40
7666;DHT22;3875;46.562;4.898;2022-12-05T06:07:22;4.20;98.40
7666;DHT22;3875;46.562;4.898;2022-12-05T06:09:48;4.10;98.50
7666;DHT22;3875;46.562;4.898;2022-12-05T06:12:13;4.00;98.60
7666;DHT22;3875;46.562;4.898;2022-12-05T06:14:39;4.00;98.60
7666;DHT22;3875;46.562;4.898;2022-12-05T06:17:05;4.00;98.60
7666;DHT22;3875;46.562;4.898;2022-12-05T06:19:30;4.00;98.60
7666;DHT22;3875;46.562;4.898;2022-12-05T06:21:56;4.00;98.60
7666;DHT22;3875;46.562;4.898;2022-12-05T06:24:22;4.00;98.60
7666;DHT22;3875;46.562;4.898;2022-12-05T06:26:48;4.10;98.60
7666;DHT22;3875;46.562;4.898;2022-12-05T06:29:13;4.10;98.60
7666;DHT22;3875;46.562;4.898;2022-12-05T06:31:40;4.10;98.60
7666;DHT22;3875;46.562;4.898;2022-12-05T06:34:06;4.10;98.60
7666;DHT22;3875;46.562;4.898;2022-12-05T06:36:32;4.20;98.60
7666;DHT22;3875;46.562;4.898;2022-12-05T06:38:59;4.20;98.60
7666;DHT22;3875;46.562;4.898;2022-12-05T06:41:25;4.10;98.60
7666;DHT22;3875;46.562;4.898;2022-12-05T06:43:53;4.20;98.60
7666;DHT22;3875;46.562;4.898;2022-12-05T06:46:19;4.20;98.60
7666;DHT22;3875;46.562;4.898;2022-12-05T06:48:46;4.20;98.60
7666;DHT22;3875;46.562;4.898;2022-12-05T06:51:14;4.20;98.60
7666;DHT22;3875;46.562;4.898;2022-12-05T06:53:40;4.10;98.50
7666;DHT22;3875;46.562;4.898;2022-12-05T06:56:09;4.10;98.50
7666;DHT22;3875;46.562;4.898;2022-12-05T06:58:43;4.20;98.60
7666;DHT22;3875;46.562;4.898;2022-12-05T07:01:11;4.20;98.60
7666;DHT22;3875;46.562;4.898;2022-12-05T07:03:56;4.20;98.50
7666;DHT22;3875;46.562;4.898;2022-12-05T07:06:22;4.20;98.50
7666;DHT22;3875;46.562;4.898;2022-12-05T07:08:48;4.20;98.40
7666;DHT22;3875;46.562;4.898;2022-12-05T07:11:14;4.20;98.30
7666;DHT22;3875;46.562;4.898;2022-12-05T07:13:39;4.20;98.40
7666;DHT22;3875;46.562;4.898;2022-12-05T07:16:05;4.20;98.30
7666;DHT22;3875;46.562;4.898;2022-12-05T07:18:32;4.10;98.50
7666;DHT22;3875;46.562;4.898;2022-12-05T07:21:00;4.10;98.60
7666;DHT22;3875;46.562;4.898;2022-12-05T07:23:26;4.00;98.60
7666;DHT22;3875;46.562;4.898;2022-12-05T07:25:53;4.00;98.60
7666;DHT22;3875;46.562;4.898;2022-12-05T07:28:19;4.00;98.60
7666;DHT22;3875;46.562;4.898;2022-12-05T07:30:45;4.00;98.60
7666;DHT22;3875;46.562;4.898;2022-12-05T07:33:10;4.10;98.60
7666;DHT22;3875;46.562;4.898;2022-12-05T07:35:36;4.10;98.60
7666;DHT22;3875;46.562;4.898;2022-12-05T07:38:02;4.10;98.60
7666;DHT22;3875;46.562;4.898;2022-12-05T07:40:28;4.20;98.60
7666;DHT22;3875;46.562;4.898;2022-12-05T07:42:54;4.20;98.60
7666;DHT22;3875;46.562;4.898;2022-12-05T07:45:20;4.20;98.60
7666;DHT22;3875;46.562;4.898;2022-12-05T07:47:46;4.20;98.60
7666;DHT22;3875;46.562;4.898;2022-12-05T07:50:13;4.30;98.60
7666;DHT22;3875;46.562;4.898;2022-12-05T07:52:39;4.30;98.60
7666;DHT22;3875;46.562;4.898;2022-12-05T07:55:06;4.30;98.60
7666;DHT22;3875;46.562;4.898;2022-12-05T07:57:32;4.40;98.60
7666;DHT22;3875;46.562;4.898;2022-12-05T07:59:57;4.40;98.60
7666;DHT22;3875;46.562;4.898;2022-12-05T08:02:23;4.40;98.50
7666;DHT22;3875;46.562;4.898;2022-12-05T08:04:49;4.40;98.50
7666;DHT22;3875;46.562;4.898;2022-12-05T08:07:14;4.40;98.40
7666;DHT22;3875;46.562;4.898;2022-12-05T08:09:40;4.40;98.40
7666;DHT22;3875;46.562;4.898;2022-12-05T08:12:06;4.40;98.40
7666;DHT22;3875;46.562;4.898;2022-12-05T08:14:31;4.40;98.50
7666;DHT22;3875;46.562;4.898;2022-12-05T08:16:57;4.50;98.50
7666;DHT22;3875;46.562;4.898;2022-12-05T08:19:23;4.50;98.30
7666;DHT22;3875;46.562;4.898;2022-12-05T08:21:49;4.50;98.30
7666;DHT22;3875;46.562;4.898;2022-12-05T08:24:16;4.50;98.30
7666;DHT22;3875;46.562;4.898;2022-12-05T08:26:42;4.60;98.40
7666;DHT22;3875;46.562;4.898;2022-12-05T08:29:11;4.60;98.30
7666;DHT22;3875;46.562;4.898;2022-12-05T08:31:44;4.60;98.20
7666;DHT22;3875;46.562;4.898;2022-12-05T08:34:12;4.60;98.20
7666;DHT22;3875;46.562;4.898;2022-12-05T08:36:37;4.70;98.30
7666;DHT22;3875;46.562;4.898;2022-12-05T08:39:05;4.70;98.20
7666;DHT22;3875;46.562;4.898;2022-12-05T08:41:32;4.80;98.30
7666;DHT22;3875;46.562;4.898;2022-12-05T08:44:01;4.90;98.30
7666;DHT22;3875;46.562;4.898;2022-12-05T08:46:36;4.90;98.10
7666;DHT22;3875;46.562;4.898;2022-12-05T08:49:04;5.00;98.10
7666;DHT22;3875;46.562;4.898;2022-12-05T08:51:30;5.00;98.20
7666;DHT22;3875;46.562;4.898;2022-12-05T08:53:55;5.10;98.10
7666;DHT22;3875;46.562;4.898;2022-12-05T08:56:22;5.10;98.10
7666;DHT22;3875;46.562;4.898;2022-12-05T08:58:48;5.20;98.10
7666;DHT22;3875;46.562;4.898;2022-12-05T09:01:18;5.20;98.00
7666;DHT22;3875;46.562;4.898;2022-12-05T09:03:44;5.30;98.20
7666;DHT22;3875;46.562;4.898;2022-12-05T09:06:15;5.30;97.90
7666;DHT22;3875;46.562;4.898;2022-12-05T09:08:42;5.30;97.90
7666;DHT22;3875;46.562;4.898;2022-12-05T09:11:11;5.30;97.70
7666;DHT22;3875;46.562;4.898;2022-12-05T09:13:37;5.30;97.70
7666;DHT22;3875;46.562;4.898;2022-12-05T09:16:10;5.30;97.90
7666;DHT22;3875;46.562;4.898;2022-12-05T09:18:37;5.40;98.00
7666;DHT22;3875;46.562;4.898;2022-12-05T09:21:07;5.40;97.90
7666;DHT22;3875;46.562;4.898;2022-12-05T09:23:33;5.40;97.70
7666;DHT22;3875;46.562;4.898;2022-12-05T09:25:59;5.40;97.80
7666;DHT22;3875;46.562;4.898;2022-12-05T09:28:28;5.60;98.30
7666;DHT22;3875;46.562;4.898;2022-12-05T09:30:56;5.70;98.20
7666;DHT22;3875;46.562;4.898;2022-12-05T09:33:22;5.90;98.10
7666;DHT22;3875;46.562;4.898;2022-12-05T09:35:48;6.20;98.00
7666;DHT22;3875;46.562;4.898;2022-12-05T09:38:14;6.40;97.70
7666;DHT22;3875;46.562;4.898;2022-12-05T09:40:41;6.50;97.50
7666;DHT22;3875;46.562;4.898;2022-12-05T09:43:26;6.70;97.20
7666;DHT22;3875;46.562;4.898;2022-12-05T09:46:03;6.80;97.10
7666;DHT22;3875;46.562;4.898;2022-12-05T09:48:33;6.90;96.70
7666;DHT22;3875;46.562;4.898;2022-12-05T09:51:00;6.90;96.30
7666;DHT22;3875;46.562;4.898;2022-12-05T10:01:45;7.10;96.00
7666;DHT22;3875;46.562;4.898;2022-12-05T10:07:20;7.20;96.40
7666;DHT22;3875;46.562;4.898;2022-12-05T10:15:21;8.00;96.20
7666;DHT22;3875;46.562;4.898;2022-12-05T10:18:13;8.30;95.20
7666;DHT22;3875;46.562;4.898;2022-12-05T10:21:02;8.30;93.70
7666;DHT22;3875;46.562;4.898;2022-12-05T10:23:34;8.20;93.40
7666;DHT22;3875;46.562;4.898;2022-12-05T10:26:04;8.10;93.40
7666;DHT22;3875;46.562;4.898;2022-12-05T10:28:47;7.90;93.40
7666;DHT22;3875;46.562;4.898;2022-12-05T10:31:17;7.80;94.00
7666;DHT22;3875;46.562;4.898;2022-12-05T10:33:48;7.90;94.10
7666;DHT22;3875;46.562;4.898;2022-12-05T10:36:15;8.00;94.70
7666;DHT22;3875;46.562;4.898;2022-12-05T10:38:42;8.10;94.30
7666;DHT22;3875;46.562;4.898;2022-12-05T10:41:13;8.10;93.20
7666;DHT22;3875;46.562;4.898;2022-12-05T10:43:41;8.10;93.50
7666;DHT22;3875;46.562;4.898;2022-12-05T10:46:08;8.10;93.60
7666;DHT22;3875;46.562;4.898;2022-12-05T10:48:38;8.10;93.70
7666;DHT22;3875;46.562;4.898;2022-12-05T10:51:05;8.00;93.40
7666;DHT22;3875;46.562;4.898;2022-12-05T10:53:47;8.10;94.30
7666;DHT22;3875;46.562;4.898;2022-12-05T10:56:45;8.30;94.50
7666;DHT22;3875;46.562;4.898;2022-12-05T10:59:14;8.40;93.10
7666;DHT22;3875;46.562;4.898;2022-12-05T11:01:58;8.30;93.00
7666;DHT22;3875;46.562;4.898;2022-12-05T11:04:43;8.30;93.50
7666;DHT22;3875;46.562;4.898;2022-12-05T11:09:48;8.80;93.20
7666;DHT22;3875;46.562;4.898;2022-12-05T11:17:41;9.30;91.20
7666;DHT22;3875;46.562;4.898;2022-12-05T11:22:55;8.80;91.10
7666;DHT22;3875;46.562;4.898;2022-12-05T11:25:29;8.60;92.10
7666;DHT22;3875;46.562;4.898;2022-12-05T11:27:57;8.50;92.30
7666;DHT22;3875;46.562;4.898;2022-12-05T11:30:25;8.30;92.80
7666;DHT22;3875;46.562;4.898;2022-12-05T11:33:18;8.10;92.50
7666;DHT22;3875;46.562;4.898;2022-12-05T11:35:45;8.00;93.00
7666;DHT22;3875;46.562;4.898;2022-12-05T11:38:11;7.90;93.60
7666;DHT22;3875;46.562;4.898;2022-12-05T11:46:38;7.80;93.70
7666;DHT22;3875;46.562;4.898;2022-12-05T11:51:54;7.60;94.10
7666;DHT22;3875;46.562;4.898;2022-12-05T11:57:31;7.70;94.00
7666;DHT22;3875;46.562;4.898;2022-12-05T12:03:00;7.70;94.20
7666;DHT22;3875;46.562;4.898;2022-12-05T12:10:56;7.90;94.00
7666;DHT22;3875;46.562;4.898;2022-12-05T12:14:28;7.90;94.10
7666;DHT22;3875;46.562;4.898;2022-12-05T12:16:52;8.00;93.80
7666;DHT22;3875;46.562;4.898;2022-12-05T12:25:01;7.90;93.50
7666;DHT22;3875;46.562;4.898;2022-12-05T12:27:59;7.90;93.90
7666;DHT22;3875;46.562;4.898;2022-12-05T12:36:35;8.20;94.10
7666;DHT22;3875;46.562;4.898;2022-12-05T12:42:20;8.30;93.40
7666;DHT22;3875;46.562;4.898;2022-12-05T12:55:27;8.10;92.70
7666;DHT22;3875;46.562;4.898;2022-12-05T12:58:27;8.10;93.20
7666;DHT22;3875;46.562;4.898;2022-12-05T13:06:27;8.20;93.00
7666;DHT22;3875;46.562;4.898;2022-12-05T13:11:49;8.30;92.60
7666;DHT22;3875;46.562;4.898;2022-12-05T13:14:18;8.30;92.80
7666;DHT22;3875;46.562;4.898;2022-12-05T13:16:51;8.30;92.80
7666;DHT22;3875;46.562;4.898;2022-12-05T13:21:50;8.30;92.50
7666;DHT22;3875;46.562;4.898;2022-12-05T13:24:19;8.30;92.40
7666;DHT22;3875;46.562;4.898;2022-12-05T13:26:48;8.30;92.70
7666;DHT22;3875;46.562;4.898;2022-12-05T13:29:25;8.30;92.40
7666;DHT22;3875;46.562;4.898;2022-12-05T13:31:52;8.30;92.40
7666;DHT22;3875;46.562;4.898;2022-12-05T13:37:00;8.00;92.30
7666;DHT22;3875;46.562;4.898;2022-12-05T13:39:54;8.00;92.50
7666;DHT22;3875;46.562;4.898;2022-12-05T13:42:40;7.90;93.00
7666;DHT22;3875;46.562;4.898;2022-12-05T13:45:14;8.00;93.00
7666;DHT22;3875;46.562;4.898;2022-12-05T13:51:05;8.10;93.20
7666;DHT22;3875;46.562;4.898;2022-12-05T13:53:39;8.10;92.80
7666;DHT22;3875;46.562;4.898;2022-12-05T13:56:22;8.10;92.60
7666;DHT22;3875;46.562;4.898;2022-12-05T13:58:56;8.10;92.40
7666;DHT22;3875;46.562;4.898;2022-12-05T14:03:55;8.00;92.50
7666;DHT22;3875;46.562;4.898;2022-12-05T14:17:28;7.90;92.80
7666;DHT22;3875;46.562;4.898;2022-12-05T14:22:31;7.90;93.00
7666;DHT22;3875;46.562;4.898;2022-12-05T14:25:23;7.90;92.70
7666;DHT22;3875;46.562;4.898;2022-12-05T14:28:14;7.90;92.80
7666;DHT22;3875;46.562;4.898;2022-12-05T14:33:41;7.90;92.70
7666;DHT22;3875;46.562;4.898;2022-12-05T14:36:13;7.80;92.40
7666;DHT22;3875;46.562;4.898;2022-12-05T14:38:41;7.80;92.30
7666;DHT22;3875;46.562;4.898;2022-12-05T14:41:32;7.80;92.00
7666;DHT22;3875;46.562;4.898;2022-12-05T14:44:01;7.70;91.90
7666;DHT22;3875;46.562;4.898;2022-12-05T14:46:31;7.70;91.80
7666;DHT22;3875;46.562;4.898;2022-12-05T14:52:09;7.60;92.10
7666;DHT22;3875;46.562;4.898;2022-12-05T14:54:37;7.50;92.20
7666;DHT22;3875;46.562;4.898;2022-12-05T14:57:14;7.50;92.20
7666;DHT22;3875;46.562;4.898;2022-12-05T15:00:01;7.40;92.40
7666;DHT22;3875;46.562;4.898;2022-12-05T15:02:31;7.40;92.30
7666;DHT22;3875;46.562;4.898;2022-12-05T15:05:19;7.40;92.40
7666;DHT22;3875;46.562;4.898;2022-12-05T15:07:47;7.40;92.40
7666;DHT22;3875;46.562;4.898;2022-12-05T15:10:34;7.30;92.40
7666;DHT22;3875;46.562;4.898;2022-12-05T15:13:14;7.30;92.50
7666;DHT22;3875;46.562;4.898;2022-12-05T15:16:05;7.20;92.50
7666;DHT22;3875;46.562;4.898;2022-12-05T15:18:47;7.10;92.20
7666;DHT22;3875;46.562;4.898;2022-12-05T15:21:41;6.90;92.40
7666;DHT22;3875;46.562;4.898;2022-12-05T15:24:11;6.80;92.80
7666;DHT22;3875;46.562;4.898;2022-12-05T15:26:46;6.70;93.00
7666;DHT22;3875;46.562;4.898;2022-12-05T15:31:51;6.50;93.00
7666;DHT22;3875;46.562;4.898;2022-12-05T15:39:28;6.30;93.20
7666;DHT22;3875;46.562;4.898;2022-12-05T15:41:56;6.30;93.40
7666;DHT22;3875;46.562;4.898;2022-12-05T15:44:27;6.20;93.40
7666;DHT22;3875;46.562;4.898;2022-12-05T15:46:59;6.20;93.40
7666;DHT22;3875;46.562;4.898;2022-12-05T15:49:27;6.10;93.30
7666;DHT22;3875;46.562;4.898;2022-12-05T15:52:30;6.10;93.50
7666;DHT22;3875;46.562;4.898;2022-12-05T15:55:01;6.00;93.50
7666;DHT22;3875;46.562;4.898;2022-12-05T15:57:36;6.00;93.70
7666;DHT22;3875;46.562;4.898;2022-12-05T16:00:11;5.90;93.50
7666;DHT22;3875;46.562;4.898;2022-12-05T16:05:39;5.40;94.10
7666;DHT22;3875;46.562;4.898;2022-12-05T16:08:11;5.40;94.40
7666;DHT22;3875;46.562;4.898;2022-12-05T16:10:37;5.30;94.30
7666;DHT22;3875;46.562;4.898;2022-12-05T16:13:12;5.20;94.10
7666;DHT22;3875;46.562;4.898;2022-12-05T16:15:45;5.10;94.20
7666;DHT22;3875;46.562;4.898;2022-12-05T16:18:28;5.10;94.40
7666;DHT22;3875;46.562;4.898;2022-12-05T16:20:54;5.00;94.50
7666;DHT22;3875;46.562;4.898;2022-12-05T16:23:28;5.00;94.60
7666;DHT22;3875;46.562;4.898;2022-12-05T16:26:19;5.00;94.80
7666;DHT22;3875;46.562;4.898;2022-12-05T16:29:03;4.90;94.90
7666;DHT22;3875;46.562;4.898;2022-12-05T16:31:30;5.00;95.00
7666;DHT22;3875;46.562;4.898;2022-12-05T16:34:13;5.00;95.00
7666;DHT22;3875;46.562;4.898;2022-12-05T16:36:47;5.00;94.80
7666;DHT22;3875;46.562;4.898;2022-12-05T16:39:14;5.00;94.70
7666;DHT22;3875;46.562;4.898;2022-12-05T16:41:40;4.90;94.40
7666;DHT22;3875;46.562;4.898;2022-12-05T16:47:25;4.80;94.40
7666;DHT22;3875;46.562;4.898;2022-12-05T16:50:33;4.70;94.40
7666;DHT22;3875;46.562;4.898;2022-12-05T16:55:37;4.20;94.70
7666;DHT22;3875;46.562;4.898;2022-12-05T16:58:15;4.10;95.50
7666;DHT22;3875;46.562;4.898;2022-12-05T17:00:42;4.10;95.60
7666;DHT22;3875;46.562;4.898;2022-12-05T17:03:12;4.10;95.60
7666;DHT22;3875;46.562;4.898;2022-12-05T17:05:39;4.00;95.70
7666;DHT22;3875;46.562;4.898;2022-12-05T17:08:08;4.00;95.80
7666;DHT22;3875;46.562;4.898;2022-12-05T17:10:34;4.00;95.80
7666;DHT22;3875;46.562;4.898;2022-12-05T17:13:00;4.00;96.00
7666;DHT22;3875;46.562;4.898;2022-12-05T17:15:28;4.10;96.10
7666;DHT22;3875;46.562;4.898;2022-12-05T17:17:54;4.10;95.80
7666;DHT22;3875;46.562;4.898;2022-12-05T17:20:20;4.00;95.40
7666;DHT22;3875;46.562;4.898;2022-12-05T17:22:49;3.80;95.60
7666;DHT22;3875;46.562;4.898;2022-12-05T17:25:30;3.70;96.10
7666;DHT22;3875;46.562;4.898;2022-12-05T17:27:57;3.70;96.30
7666;DHT22;3875;46.562;4.898;2022-12-05T17:30:24;3.70;96.20
7666;DHT22;3875;46.562;4.898;2022-12-05T17:32:49;3.70;96.30
7666;DHT22;3875;46.562;4.898;2022-12-05T17:35:17;3.80;96.10
7666;DHT22;3875;46.562;4.898;2022-12-05T17:37:43;3.80;96.10
7666;DHT22;3875;46.562;4.898;2022-12-05T17:40:09;3.90;96.20
7666;DHT22;3875;46.562;4.898;2022-12-05T17:42:35;3.90;95.90
7666;DHT22;3875;46.562;4.898;2022-12-05T17:45:01;4.00;95.90
7666;DHT22;3875;46.562;4.898;2022-12-05T17:47:27;4.00;95.70
7666;DHT22;3875;46.562;4.898;2022-12-05T17:49:53;4.00;95.60
7666;DHT22;3875;46.562;4.898;2022-12-05T17:52:22;4.00;95.40
7666;DHT22;3875;46.562;4.898;2022-12-05T17:54:48;3.90;95.30
7666;DHT22;3875;46.562;4.898;2022-12-05T17:57:14;3.80;95.40
7666;DHT22;3875;46.562;4.898;2022-12-05T17:59:40;3.70;95.50
7666;DHT22;3875;46.562;4.898;2022-12-05T18:02:09;3.60;95.70
7666;DHT22;3875;46.562;4.898;2022-12-05T18:04:37;3.50;96.10
7666;DHT22;3875;46.562;4.898;2022-12-05T18:07:07;3.50;96.30
7666;DHT22;3875;46.562;4.898;2022-12-05T18:09:33;3.50;96.60
7666;DHT22;3875;46.562;4.898;2022-12-05T18:11:58;3.50;96.70
7666;DHT22;3875;46.562;4.898;2022-12-05T18:14:24;3.60;96.60
7666;DHT22;3875;46.562;4.898;2022-12-05T18:16:51;3.60;96.50
7666;DHT22;3875;46.562;4.898;2022-12-05T18:19:17;3.70;96.40
7666;DHT22;3875;46.562;4.898;2022-12-05T18:21:43;3.70;96.30
7666;DHT22;3875;46.562;4.898;2022-12-05T18:24:09;3.70;96.20
7666;DHT22;3875;46.562;4.898;2022-12-05T18:26:35;3.70;96.10
7666;DHT22;3875;46.562;4.898;2022-12-05T18:29:01;3.70;95.90
7666;DHT22;3875;46.562;4.898;2022-12-05T18:31:26;3.60;96.00
7666;DHT22;3875;46.562;4.898;2022-12-05T18:33:52;3.60;96.10
7666;DHT22;3875;46.562;4.898;2022-12-05T18:36:19;3.60;96.10
7666;DHT22;3875;46.562;4.898;2022-12-05T18:38:50;3.50;96.40
7666;DHT22;3875;46.562;4.898;2022-12-05T18:41:17;3.50;96.50
7666;DHT22;3875;46.562;4.898;2022-12-05T18:43:43;3.50;96.50
7666;DHT22;3875;46.562;4.898;2022-12-05T18:46:08;3.40;96.60
7666;DHT22;3875;46.562;4.898;2022-12-05T18:48:34;3.40;96.70
7666;DHT22;3875;46.562;4.898;2022-12-05T18:51:15;3.40;96.80
7666;DHT22;3875;46.562;4.898;2022-12-05T18:53:41;3.40;96.70
7666;DHT22;3875;46.562;4.898;2022-12-05T18:56:12;3.40;96.70
7666;DHT22;3875;46.562;4.898;2022-12-05T18:58:38;3.40;96.70
7666;DHT22;3875;46.562;4.898;2022-12-05T19:01:12;3.40;96.50
7666;DHT22;3875;46.562;4.898;2022-12-05T19:03:40;3.40;96.50
7666;DHT22;3875;46.562;4.898;2022-12-05T19:06:19;3.40;96.60
7666;DHT22;3875;46.562;4.898;2022-12-05T19:08:53;3.50;96.60
7666;DHT22;3875;46.562;4.898;2022-12-05T19:11:20;3.50;96.30
7666;DHT22;3875;46.562;4.898;2022-12-05T19:13:46;3.50;96.10
7666;DHT22;3875;46.562;4.898;2022-12-05T19:16:31;3.40;95.90
7666;DHT22;3875;46.562;4.898;2022-12-05T19:19:00;3.40;96.10
7666;DHT22;3875;46.562;4.898;2022-12-05T19:21:34;3.40;96.20
7666;DHT22;3875;46.562;4.898;2022-12-05T19:24:04;3.20;96.20
7666;DHT22;3875;46.562;4.898;2022-12-05T19:26:34;3.00;96.60
7666;DHT22;3875;46.562;4.898;2022-12-05T19:29:03;3.00;97.00
7666;DHT22;3875;46.562;4.898;2022-12-05T19:31:29;3.10;97.00
7666;DHT22;3875;46.562;4.898;2022-12-05T19:34:06;3.10;96.90
7666;DHT22;3875;46.562;4.898;2022-12-05T19:36:38;3.10;96.90